sensor_id;sensor_type;location;lat;lon;timestamp;pressure;altitude;pressure_sealevel;temperature;humidity
41234;BME280;26968;42.686;23.352;2023-04-01T00:01:45;94394.34;;;13.17;52.37
41234;BME280;26968;42.686;23.352;2023-04-01T00:04:11;94390.88;;;13.16;52.08
41234;BME280;26968;42.686;23.352;2023-04-01T00:06:36;94282.41;;;12.43;52.01
41234;BME280;26968;42.686;23.352;2023-04-01T00:09:02;94340.47;;;12.80;51.92
41234;BME280;26968;42.686;23.352;2023-04-01T00:11:27;94329.16;;;12.74;51.94
41234;BME280;26968;42.686;23.352;2023-04-01T00:13:53;94390.72;;;12.90;52.44
41234;BME280;26968;42.686;23.352;2023-04-01T00:16:19;94365.28;;;12.67;52.17
41234;BME280;26968;42.686;23.352;2023-04-01T00:18:44;94390.09;;;12.85;51.88
41234;BME280;26968;42.686;23.352;2023-04-01T00:21:12;94341.63;;;12.57;51.77
41234;BME280;26968;42.686;23.352;2023-04-01T00:23:38;94341.06;;;12.46;52.08
41234;BME280;26968;42.686;23.352;2023-04-01T00:26:03;94374.38;;;12.74;52.03
41234;BME280;26968;42.686;23.352;2023-04-01T00:28:29;94312.06;;;12.27;52.22
41234;BME280;26968;42.686;23.352;2023-04-01T00:30:55;94394.59;;;12.75;52.96
41234;BME280;26968;42.686;23.352;2023-04-01T00:33:20;94390.19;;;12.71;52.35
41234;BME280;26968;42.686;23.352;2023-04-01T00:35:46;94356.81;;;12.34;53.10
41234;BME280;26968;42.686;23.352;2023-04-01T00:38:12;94386.91;;;12.43;53.06
41234;BME280;26968;42.686;23.352;2023-04-01T00:40:40;94345.28;;;12.16;53.64
41234;BME280;26968;42.686;23.352;2023-04-01T00:43:12;94377.94;;;12.39;54.00
41234;BME280;26968;42.686;23.352;2023-04-01T00:45:40;94372.81;;;12.43;55.01
41234;BME280;26968;42.686;23.352;2023-04-01T00:48:15;94361.41;;;12.42;56.71
41234;BME280;26968;42.686;23.352;2023-04-01T00:50:46;94351.94;;;12.27;56.75
41234;BME280;26968;42.686;23.352;2023-04-01T00:53:12;94356.03;;;12.33;58.38
41234;BME280;26968;42.686;23.352;2023-04-01T00:55:42;94298.69;;;11.88;57.79
41234;BME280;26968;42.686;23.352;2023-04-01T00:58:12;94350.94;;;12.23;57.92
41234;BME280;26968;42.686;23.352;2023-04-01T01:00:39;94243.28;;;11.59;59.56
41234;BME280;26968;42.686;23.352;2023-04-01T01:03:05;94342.97;;;12.23;58.30
41234;BME280;26968;42.686;23.352;2023-04-01T01:08:52;94332.59;;;12.13;58.47
41234;BME280;26968;42.686;23.352;2023-04-01T01:11:31;94238.22;;;11.49;58.20
41234;BME280;26968;42.686;23.352;2023-04-01T01:16:45;94308.38;;;11.92;59.48
41234;BME280;26968;42.686;23.352;2023-04-01T01:22:35;94304.88;;;12.06;59.47
41234;BME280;26968;42.686;23.352;2023-04-01T01:25:16;94306.94;;;12.09;58.67
41234;BME280;26968;42.686;23.352;2023-04-01T01:27:54;94308.44;;;12.01;57.29
41234;BME280;26968;42.686;23.352;2023-04-01T01:30:39;94303.91;;;12.02;57.46
41234;BME280;26968;42.686;23.352;2023-04-01T01:36:15;94258.13;;;11.60;58.35
41234;BME280;26968;42.686;23.352;2023-04-01T01:38:43;94260.19;;;11.63;57.45
41234;BME280;26968;42.686;23.352;2023-04-01T01:41:11;94241.00;;;11.66;57.07
41234;BME280;26968;42.686;23.352;2023-04-01T01:43:42;94262.84;;;11.85;57.16
41234;BME280;26968;42.686;23.352;2023-04-01T01:46:15;94282.34;;;12.03;56.58
41234;BME280;26968;42.686;23.352;2023-04-01T01:48:43;94269.97;;;11.98;56.26
41234;BME280;26968;42.686;23.352;2023-04-01T01:51:10;94289.94;;;12.18;56.04
41234;BME280;26968;42.686;23.352;2023-04-01T01:53:36;94219.84;;;11.75;55.38
41234;BME280;26968;42.686;23.352;2023-04-01T01:56:02;94207.63;;;11.51;55.90
41234;BME280;26968;42.686;23.352;2023-04-01T01:58:32;94274.44;;;12.12;56.17
41234;BME280;26968;42.686;23.352;2023-04-01T02:01:07;94263.97;;;12.15;55.59
41234;BME280;26968;42.686;23.352;2023-04-01T02:03:37;94262.97;;;12.03;56.15
41234;BME280;26968;42.686;23.352;2023-04-01T02:06:07;94251.44;;;11.85;56.12
41234;BME280;26968;42.686;23.352;2023-04-01T02:08:40;94276.13;;;11.85;56.09
41234;BME280;26968;42.686;23.352;2023-04-01T02:11:10;94259.13;;;11.86;56.17
41234;BME280;26968;42.686;23.352;2023-04-01T02:13:41;94265.34;;;12.04;55.63
41234;BME280;26968;42.686;23.352;2023-04-01T02:16:15;94259.47;;;11.93;55.80
41234;BME280;26968;42.686;23.352;2023-04-01T02:18:45;94262.47;;;12.01;56.08
41234;BME280;26968;42.686;23.352;2023-04-01T02:21:13;94203.81;;;11.66;55.77
41234;BME280;26968;42.686;23.352;2023-04-01T02:23:41;94253.78;;;12.09;55.55
41234;BME280;26968;42.686;23.352;2023-04-01T02:26:08;94244.56;;;12.15;55.46
41234;BME280;26968;42.686;23.352;2023-04-01T02:28:37;94177.19;;;11.80;55.79
41234;BME280;26968;42.686;23.352;2023-04-01T02:31:03;94253.69;;;12.22;55.75
41234;BME280;26968;42.686;23.352;2023-04-01T02:33:30;94259.88;;;12.09;55.87
41234;BME280;26968;42.686;23.352;2023-04-01T02:35:57;94270.22;;;11.66;56.86
41234;BME280;26968;42.686;23.352;2023-04-01T02:38:23;94256.81;;;11.71;57.24
41234;BME280;26968;42.686;23.352;2023-04-01T02:40:51;94259.19;;;11.95;56.67
41234;BME280;26968;42.686;23.352;2023-04-01T02:43:21;94266.13;;;12.05;56.48
41234;BME280;26968;42.686;23.352;2023-04-01T02:45:46;94250.66;;;11.84;56.65
41234;BME280;26968;42.686;23.352;2023-04-01T02:48:12;94224.88;;;11.63;56.50
41234;BME280;26968;42.686;23.352;2023-04-01T02:50:39;94232.25;;;11.88;56.40
41234;BME280;26968;42.686;23.352;2023-04-01T02:53:05;94164.97;;;11.26;56.08
41234;BME280;26968;42.686;23.352;2023-04-01T02:55:32;94282.47;;;11.98;56.05
41234;BME280;26968;42.686;23.352;2023-04-01T02:57:57;94278.66;;;11.90;55.95
41234;BME280;26968;42.686;23.352;2023-04-01T03:00:23;94228.00;;;11.65;55.22
41234;BME280;26968;42.686;23.352;2023-04-01T03:02:48;94202.78;;;11.53;55.34
41234;BME280;26968;42.686;23.352;2023-04-01T03:05:14;94274.09;;;11.46;56.40
41234;BME280;26968;42.686;23.352;2023-04-01T03:07:40;94224.97;;;11.13;56.76
41234;BME280;26968;42.686;23.352;2023-04-01T03:10:06;94270.50;;;11.65;56.49
41234;BME280;26968;42.686;23.352;2023-04-01T03:12:32;94220.13;;;11.15;56.31
41234;BME280;26968;42.686;23.352;2023-04-01T03:14:57;94237.78;;;11.33;55.62
41234;BME280;26968;42.686;23.352;2023-04-01T03:17:22;94255.66;;;11.41;55.63
41234;BME280;26968;42.686;23.352;2023-04-01T03:19:48;94295.84;;;11.12;56.96
41234;BME280;26968;42.686;23.352;2023-04-01T03:22:13;94305.28;;;11.41;56.55
41234;BME280;26968;42.686;23.352;2023-04-01T03:24:39;94256.16;;;10.94;57.43
41234;BME280;26968;42.686;23.352;2023-04-01T03:27:05;94308.88;;;11.36;57.34
41234;BME280;26968;42.686;23.352;2023-04-01T03:29:30;94176.38;;;10.13;58.08
41234;BME280;26968;42.686;23.352;2023-04-01T03:31:56;94319.81;;;11.07;58.56
41234;BME280;26968;42.686;23.352;2023-04-01T03:34:23;94260.19;;;10.77;58.17
41234;BME280;26968;42.686;23.352;2023-04-01T03:36:49;94263.56;;;10.83;59.25
41234;BME280;26968;42.686;23.352;2023-04-01T03:39:14;94243.69;;;10.94;60.12
41234;BME280;26968;42.686;23.352;2023-04-01T03:41:44;94297.22;;;11.46;59.02
41234;BME280;26968;42.686;23.352;2023-04-01T03:44:10;94245.16;;;11.22;60.81
41234;BME280;26968;42.686;23.352;2023-04-01T03:46:35;94274.25;;;11.64;60.99
41234;BME280;26968;42.686;23.352;2023-04-01T03:49:01;94261.19;;;11.53;61.08
41234;BME280;26968;42.686;23.352;2023-04-01T03:51:27;94183.97;;;11.19;60.29
41234;BME280;26968;42.686;23.352;2023-04-01T03:53:53;94247.56;;;11.69;61.23
41234;BME280;26968;42.686;23.352;2023-04-01T03:56:18;94214.03;;;11.50;61.66
41234;BME280;26968;42.686;23.352;2023-04-01T03:58:44;94220.78;;;11.56;62.17
41234;BME280;26968;42.686;23.352;2023-04-01T04:01:21;94136.19;;;11.19;61.57
41234;BME280;26968;42.686;23.352;2023-04-01T04:03:47;94173.28;;;11.55;61.27
41234;BME280;26968;42.686;23.352;2023-04-01T04:06:15;94190.03;;;11.64;61.42
41234;BME280;26968;42.686;23.352;2023-04-01T04:08:41;94122.97;;;10.83;61.69
41234;BME280;26968;42.686;23.352;2023-04-01T04:11:06;94181.19;;;11.46;60.50
41234;BME280;26968;42.686;23.352;2023-04-01T04:13:32;94110.75;;;10.96;60.70
41234;BME280;26968;42.686;23.352;2023-04-01T04:15:58;94186.00;;;11.44;61.11
41234;BME280;26968;42.686;23.352;2023-04-01T04:18:23;94167.81;;;11.60;60.28
41234;BME280;26968;42.686;23.352;2023-04-01T04:20:48;94140.34;;;11.34;60.08
41234;BME280;26968;42.686;23.352;2023-04-01T04:23:16;94174.44;;;11.40;60.26
41234;BME280;26968;42.686;23.352;2023-04-01T04:25:41;94114.19;;;11.18;59.33
41234;BME280;26968;42.686;23.352;2023-04-01T04:28:07;94115.69;;;11.33;58.79
41234;BME280;26968;42.686;23.352;2023-04-01T04:30:32;94107.72;;;11.33;58.74
41234;BME280;26968;42.686;23.352;2023-04-01T04:32:57;94143.19;;;11.68;57.73
41234;BME280;26968;42.686;23.352;2023-04-01T04:35:23;94105.84;;;11.34;57.75
41234;BME280;26968;42.686;23.352;2023-04-01T04:37:48;94141.16;;;11.65;58.20
41234;BME280;26968;42.686;23.352;2023-04-01T04:40:14;94154.25;;;11.61;57.71
41234;BME280;26968;42.686;23.352;2023-04-01T04:42:39;94099.75;;;11.33;57.66
41234;BME280;26968;42.686;23.352;2023-04-01T04:45:06;94029.09;;;10.93;57.59
41234;BME280;26968;42.686;23.352;2023-04-01T04:47:32;94117.38;;;11.60;57.46
41234;BME280;26968;42.686;23.352;2023-04-01T04:49:58;93998.63;;;10.81;57.62
41234;BME280;26968;42.686;23.352;2023-04-01T04:52:23;94128.59;;;11.79;56.88
41234;BME280;26968;42.686;23.352;2023-04-01T04:54:49;94051.31;;;11.28;56.34
41234;BME280;26968;42.686;23.352;2023-04-01T04:57:14;94051.91;;;11.25;56.31
41234;BME280;26968;42.686;23.352;2023-04-01T04:59:40;94063.41;;;11.42;55.94
41234;BME280;26968;42.686;23.352;2023-04-01T05:02:05;94123.44;;;11.83;55.73
41234;BME280;26968;42.686;23.352;2023-04-01T05:04:34;94063.91;;;11.53;55.09
41234;BME280;26968;42.686;23.352;2023-04-01T05:07:00;94062.84;;;11.54;55.41
41234;BME280;26968;42.686;23.352;2023-04-01T05:09:25;94078.31;;;11.60;55.39
41234;BME280;26968;42.686;23.352;2023-04-01T05:11:54;94064.84;;;11.48;54.73
41234;BME280;26968;42.686;23.352;2023-04-01T05:14:19;94024.75;;;11.19;54.83
41234;BME280;26968;42.686;23.352;2023-04-01T05:16:45;94035.91;;;11.38;54.97
41234;BME280;26968;42.686;23.352;2023-04-01T05:19:10;94025.91;;;11.35;55.32
41234;BME280;26968;42.686;23.352;2023-04-01T05:21:36;94042.00;;;11.39;55.78
41234;BME280;26968;42.686;23.352;2023-04-01T05:24:01;93984.69;;;11.07;55.68
41234;BME280;26968;42.686;23.352;2023-04-01T05:26:26;94004.94;;;11.25;55.90
41234;BME280;26968;42.686;23.352;2023-04-01T05:28:52;94036.78;;;11.56;55.38
41234;BME280;26968;42.686;23.352;2023-04-01T05:31:17;94089.00;;;11.69;55.63
41234;BME280;26968;42.686;23.352;2023-04-01T05:33:43;94018.16;;;11.16;55.70
41234;BME280;26968;42.686;23.352;2023-04-01T05:36:10;94084.75;;;11.68;55.80
41234;BME280;26968;42.686;23.352;2023-04-01T05:38:36;94082.78;;;11.74;55.70
41234;BME280;26968;42.686;23.352;2023-04-01T05:41:03;94041.88;;;11.44;55.46
41234;BME280;26968;42.686;23.352;2023-04-01T05:43:28;94096.47;;;11.58;56.72
41234;BME280;26968;42.686;23.352;2023-04-01T05:45:55;94043.91;;;11.16;57.39
41234;BME280;26968;42.686;23.352;2023-04-01T05:48:21;94003.38;;;10.93;56.83
41234;BME280;26968;42.686;23.352;2023-04-01T05:50:46;94092.13;;;11.71;56.11
41234;BME280;26968;42.686;23.352;2023-04-01T05:53:11;94054.75;;;11.59;55.89
41234;BME280;26968;42.686;23.352;2023-04-01T05:55:37;94069.91;;;11.89;55.54
41234;BME280;26968;42.686;23.352;2023-04-01T05:58:02;94066.59;;;11.92;56.20
41234;BME280;26968;42.686;23.352;2023-04-01T06:00:28;94041.56;;;11.85;55.72
41234;BME280;26968;42.686;23.352;2023-04-01T06:02:53;94032.38;;;11.82;55.00
41234;BME280;26968;42.686;23.352;2023-04-01T06:05:24;94065.59;;;12.19;54.59
41234;BME280;26968;42.686;23.352;2023-04-01T06:07:59;93999.56;;;11.87;54.34
41234;BME280;26968;42.686;23.352;2023-04-01T06:21:59;94068.91;;;12.68;52.89
41234;BME280;26968;42.686;23.352;2023-04-01T06:27:04;94065.16;;;13.03;52.13
41234;BME280;26968;42.686;23.352;2023-04-01T06:30:06;94078.16;;;12.88;51.68
41234;BME280;26968;42.686;23.352;2023-04-01T06:32:55;94070.16;;;13.13;51.51
41234;BME280;26968;42.686;23.352;2023-04-01T06:38:30;94056.63;;;13.44;51.21
41234;BME280;26968;42.686;23.352;2023-04-01T06:41:29;94047.84;;;13.52;51.23
41234;BME280;26968;42.686;23.352;2023-04-01T06:47:19;94014.19;;;13.48;51.08
41234;BME280;26968;42.686;23.352;2023-04-01T06:52:42;93996.28;;;13.57;51.40
41234;BME280;26968;42.686;23.352;2023-04-01T06:55:23;94030.91;;;13.95;51.00
41234;BME280;26968;42.686;23.352;2023-04-01T06:57:56;94009.56;;;13.95;50.77
41234;BME280;26968;42.686;23.352;2023-04-01T07:02:54;93966.34;;;13.81;50.79
41234;BME280;26968;42.686;23.352;2023-04-01T07:05:25;93944.22;;;13.60;51.89
41234;BME280;26968;42.686;23.352;2023-04-01T07:07:57;93929.19;;;13.34;51.96
41234;BME280;26968;42.686;23.352;2023-04-01T07:13:44;93986.22;;;13.63;51.33
41234;BME280;26968;42.686;23.352;2023-04-01T07:16:46;93959.97;;;13.44;51.88
41234;BME280;26968;42.686;23.352;2023-04-01T07:19:21;93997.47;;;13.98;51.75
41234;BME280;26968;42.686;23.352;2023-04-01T07:22:03;93890.72;;;13.44;51.94
41234;BME280;26968;42.686;23.352;2023-04-01T07:24:35;93950.41;;;13.43;52.08
41234;BME280;26968;42.686;23.352;2023-04-01T07:27:03;93972.66;;;13.47;53.05
41234;BME280;26968;42.686;23.352;2023-04-01T07:29:30;93917.94;;;13.20;53.24
41234;BME280;26968;42.686;23.352;2023-04-01T07:42:36;93963.69;;;13.81;52.95
41234;BME280;26968;42.686;23.352;2023-04-01T07:50:32;93979.81;;;14.14;52.55
41234;BME280;26968;42.686;23.352;2023-04-01T07:53:16;93935.00;;;13.86;53.09
41234;BME280;26968;42.686;23.352;2023-04-01T07:56:01;93994.84;;;14.18;52.13
41234;BME280;26968;42.686;23.352;2023-04-01T08:09:04;93971.34;;;14.12;51.51
41234;BME280;26968;42.686;23.352;2023-04-01T08:11:46;93949.56;;;14.10;51.57
41234;BME280;26968;42.686;23.352;2023-04-01T08:20:18;93947.66;;;14.73;50.06
41234;BME280;26968;42.686;23.352;2023-04-01T08:25:48;93937.19;;;15.00;49.63
41234;BME280;26968;42.686;23.352;2023-04-01T08:28:27;93946.16;;;14.96;49.64
41234;BME280;26968;42.686;23.352;2023-04-01T08:33:33;93913.41;;;14.75;49.66
41234;BME280;26968;42.686;23.352;2023-04-01T08:36:21;93898.13;;;14.96;49.54
41234;BME280;26968;42.686;23.352;2023-04-01T08:56:42;93860.88;;;15.24;47.56
41234;BME280;26968;42.686;23.352;2023-04-01T08:59:34;93872.00;;;15.14;47.80
41234;BME280;26968;42.686;23.352;2023-04-01T09:21:03;93878.22;;;16.18;41.71
41234;BME280;26968;42.686;23.352;2023-04-01T09:24:13;93875.72;;;16.38;41.72
41234;BME280;26968;42.686;23.352;2023-04-01T09:40:57;93845.47;;;16.93;40.46
41234;BME280;26968;42.686;23.352;2023-04-01T09:55:15;93803.97;;;16.87;42.95
41234;BME280;26968;42.686;23.352;2023-04-01T10:14:59;93782.53;;;17.18;43.47
41234;BME280;26968;42.686;23.352;2023-04-01T10:32:34;93747.03;;;17.21;43.01
41234;BME280;26968;42.686;23.352;2023-04-01T11:29:53;93737.25;;;16.63;43.47
41234;BME280;26968;42.686;23.352;2023-04-01T11:37:52;93734.94;;;15.10;44.85
41234;BME280;26968;42.686;23.352;2023-04-01T11:40:31;93715.16;;;14.86;49.21
41234;BME280;26968;42.686;23.352;2023-04-01T11:43:21;93817.50;;;15.02;53.23
41234;BME280;26968;42.686;23.352;2023-04-01T11:46:21;93835.13;;;14.38;54.36
41234;BME280;26968;42.686;23.352;2023-04-01T11:48:58;93945.53;;;14.04;60.36
41234;BME280;26968;42.686;23.352;2023-04-01T12:05:38;93979.84;;;11.00;79.43
41234;BME280;26968;42.686;23.352;2023-04-01T12:08:22;93999.53;;;11.08;82.02
41234;BME280;26968;42.686;23.352;2023-04-01T12:13:55;93963.38;;;11.12;83.73
41234;BME280;26968;42.686;23.352;2023-04-01T12:18:57;93891.06;;;10.67;83.78
41234;BME280;26968;42.686;23.352;2023-04-01T12:35:24;93987.47;;;11.72;86.84
41234;BME280;26968;42.686;23.352;2023-04-01T12:38:08;93996.00;;;11.60;84.62
41234;BME280;26968;42.686;23.352;2023-04-01T13:05:46;93938.56;;;11.65;82.78
41234;BME280;26968;42.686;23.352;2023-04-01T13:19:34;93882.34;;;12.06;85.82
41234;BME280;26968;42.686;23.352;2023-04-01T13:22:11;93848.13;;;11.95;84.51
41234;BME280;26968;42.686;23.352;2023-04-01T13:24:45;93911.88;;;12.21;82.67
41234;BME280;26968;42.686;23.352;2023-04-01T13:27:38;93883.59;;;12.17;82.00
41234;BME280;26968;42.686;23.352;2023-04-01T13:30:16;93886.59;;;12.88;83.75
41234;BME280;26968;42.686;23.352;2023-04-01T13:32:54;93873.53;;;13.41;82.33
41234;BME280;26968;42.686;23.352;2023-04-01T13:41:06;93853.75;;;14.91;73.24
41234;BME280;26968;42.686;23.352;2023-04-01T13:43:51;93821.56;;;14.76;68.57
41234;BME280;26968;42.686;23.352;2023-04-01T14:00:03;93831.84;;;16.54;69.80
41234;BME280;26968;42.686;23.352;2023-04-01T14:02:49;93816.97;;;17.01;67.42
41234;BME280;26968;42.686;23.352;2023-04-01T14:24:08;93786.81;;;19.68;55.06
41234;BME280;26968;42.686;23.352;2023-04-01T14:37:30;93770.59;;;19.64;52.34
41234;BME280;26968;42.686;23.352;2023-04-01T14:40:19;93767.69;;;19.77;53.07
41234;BME280;26968;42.686;23.352;2023-04-01T14:42:53;93769.31;;;20.48;53.96
41234;BME280;26968;42.686;23.352;2023-04-01T14:45:46;93765.78;;;20.81;51.31
41234;BME280;26968;42.686;23.352;2023-04-01T14:51:21;93769.38;;;20.55;48.87
41234;BME280;26968;42.686;23.352;2023-04-01T15:04:50;93740.78;;;21.28;45.44
41234;BME280;26968;42.686;23.352;2023-04-01T15:19:00;93760.59;;;19.39;48.54
41234;BME280;26968;42.686;23.352;2023-04-01T15:24:45;93762.16;;;18.45;52.29
41234;BME280;26968;42.686;23.352;2023-04-01T15:27:15;93780.25;;;17.71;53.71
41234;BME280;26968;42.686;23.352;2023-04-01T15:35:39;93775.91;;;17.12;53.49
41234;BME280;26968;42.686;23.352;2023-04-01T15:41:10;93724.84;;;15.83;56.23
41234;BME280;26968;42.686;23.352;2023-04-01T15:43:47;93795.72;;;16.48;56.73
41234;BME280;26968;42.686;23.352;2023-04-01T15:46:45;93797.41;;;15.97;56.84
41234;BME280;26968;42.686;23.352;2023-04-01T15:49:35;93797.53;;;16.01;57.88
41234;BME280;26968;42.686;23.352;2023-04-01T16:03:36;94002.38;;;9.59;74.52
41234;BME280;26968;42.686;23.352;2023-04-01T16:11:57;93991.16;;;8.10;83.32
41234;BME280;26968;42.686;23.352;2023-04-01T16:17:17;94015.50;;;8.26;89.78
41234;BME280;26968;42.686;23.352;2023-04-01T16:22:35;94078.09;;;8.25;90.98
41234;BME280;26968;42.686;23.352;2023-04-01T16:25:38;94072.81;;;8.25;88.50
41234;BME280;26968;42.686;23.352;2023-04-01T16:28:16;94065.66;;;8.31;88.37
41234;BME280;26968;42.686;23.352;2023-04-01T16:34:16;94037.25;;;8.18;88.82
41234;BME280;26968;42.686;23.352;2023-04-01T16:36:48;94025.19;;;8.11;87.64
41234;BME280;26968;42.686;23.352;2023-04-01T16:39:22;94105.84;;;8.46;86.27
41234;BME280;26968;42.686;23.352;2023-04-01T16:44:47;94066.91;;;8.33;86.46
41234;BME280;26968;42.686;23.352;2023-04-01T16:47:17;94094.56;;;8.17;83.46
41234;BME280;26968;42.686;23.352;2023-04-01T16:49:51;94109.06;;;8.20;83.28
41234;BME280;26968;42.686;23.352;2023-04-01T16:52:36;94110.94;;;8.19;83.27
41234;BME280;26968;42.686;23.352;2023-04-01T16:55:20;94112.75;;;8.24;83.34
41234;BME280;26968;42.686;23.352;2023-04-01T16:57:51;94083.56;;;8.10;83.39
41234;BME280;26968;42.686;23.352;2023-04-01T17:01:09;94101.50;;;8.37;82.73
41234;BME280;26968;42.686;23.352;2023-04-01T17:03:42;94068.47;;;8.16;82.61
41234;BME280;26968;42.686;23.352;2023-04-01T17:06:31;94102.31;;;8.32;80.64
41234;BME280;26968;42.686;23.352;2023-04-01T17:09:05;94124.06;;;8.24;80.30
41234;BME280;26968;42.686;23.352;2023-04-01T17:15:10;94139.16;;;8.24;80.34
41234;BME280;26968;42.686;23.352;2023-04-01T17:28:19;94133.91;;;8.19;80.35
41234;BME280;26968;42.686;23.352;2023-04-01T17:31:04;94138.75;;;8.11;80.14
41234;BME280;26968;42.686;23.352;2023-04-01T17:50:17;94160.66;;;8.12;80.72
41234;BME280;26968;42.686;23.352;2023-04-01T17:55:57;94195.16;;;7.97;79.15
41234;BME280;26968;42.686;23.352;2023-04-01T18:01:49;94207.75;;;8.05;81.47
41234;BME280;26968;42.686;23.352;2023-04-01T18:05:11;94205.13;;;8.05;79.85
41234;BME280;26968;42.686;23.352;2023-04-01T18:20:54;94244.94;;;7.85;77.99
41234;BME280;26968;42.686;23.352;2023-04-01T18:23:32;94204.66;;;7.45;77.92
41234;BME280;26968;42.686;23.352;2023-04-01T18:26:14;94231.34;;;7.67;78.92
41234;BME280;26968;42.686;23.352;2023-04-01T18:31:42;94225.22;;;7.72;78.33
41234;BME280;26968;42.686;23.352;2023-04-01T18:37:28;94238.88;;;7.79;78.99
41234;BME280;26968;42.686;23.352;2023-04-01T18:40:20;94237.44;;;7.68;78.81
41234;BME280;26968;42.686;23.352;2023-04-01T18:46:00;94187.00;;;7.41;78.52
41234;BME280;26968;42.686;23.352;2023-04-01T18:48:37;94225.03;;;7.68;78.19
41234;BME280;26968;42.686;23.352;2023-04-01T18:51:36;94210.34;;;7.57;78.48
41234;BME280;26968;42.686;23.352;2023-04-01T18:56:47;94177.38;;;7.55;77.17
41234;BME280;26968;42.686;23.352;2023-04-01T18:59:27;94240.69;;;8.12;77.97
41234;BME280;26968;42.686;23.352;2023-04-01T19:02:05;94250.91;;;8.19;77.08
41234;BME280;26968;42.686;23.352;2023-04-01T19:04:38;94255.53;;;8.08;75.90
41234;BME280;26968;42.686;23.352;2023-04-01T19:07:53;94259.91;;;8.18;76.93
41234;BME280;26968;42.686;23.352;2023-04-01T19:18:41;94260.03;;;8.32;74.95
41234;BME280;26968;42.686;23.352;2023-04-01T19:26:58;94265.31;;;8.32;73.63
41234;BME280;26968;42.686;23.352;2023-04-01T19:32:14;94273.75;;;8.34;72.90
41234;BME280;26968;42.686;23.352;2023-04-01T19:37:32;94281.13;;;8.37;71.83
41234;BME280;26968;42.686;23.352;2023-04-01T19:43:18;94301.25;;;8.33;71.25
41234;BME280;26968;42.686;23.352;2023-04-01T19:46:00;94203.06;;;7.73;71.38
41234;BME280;26968;42.686;23.352;2023-04-01T19:51:07;94318.38;;;8.06;71.34
41234;BME280;26968;42.686;23.352;2023-04-01T19:53:56;94292.19;;;8.10;72.07
41234;BME280;26968;42.686;23.352;2023-04-01T19:56:24;94311.34;;;7.97;70.65
41234;BME280;26968;42.686;23.352;2023-04-01T20:01:35;94312.44;;;8.20;71.11
41234;BME280;26968;42.686;23.352;2023-04-01T20:04:17;94213.06;;;7.47;71.44
41234;BME280;26968;42.686;23.352;2023-04-01T20:07:00;94314.91;;;8.11;70.75
41234;BME280;26968;42.686;23.352;2023-04-01T20:14:52;94241.25;;;7.81;70.94
41234;BME280;26968;42.686;23.352;2023-04-01T20:17:22;94299.69;;;8.27;71.92
41234;BME280;26968;42.686;23.352;2023-04-01T20:20:20;94259.72;;;8.09;69.71
41234;BME280;26968;42.686;23.352;2023-04-01T20:28:00;94320.72;;;8.66;70.07
41234;BME280;26968;42.686;23.352;2023-04-01T20:33:27;94322.91;;;8.59;69.44
41234;BME280;26968;42.686;23.352;2023-04-01T20:36:21;94282.31;;;8.21;67.61
41234;BME280;26968;42.686;23.352;2023-04-01T20:41:33;94324.53;;;8.31;67.13
41234;BME280;26968;42.686;23.352;2023-04-01T20:44:12;94335.09;;;8.31;66.66
41234;BME280;26968;42.686;23.352;2023-04-01T20:49:33;94352.19;;;8.38;66.49
41234;BME280;26968;42.686;23.352;2023-04-01T20:59:48;94300.22;;;8.29;65.83
41234;BME280;26968;42.686;23.352;2023-04-01T21:08:08;94338.38;;;8.46;65.15
41234;BME280;26968;42.686;23.352;2023-04-01T21:39:52;94362.75;;;8.38;65.08
41234;BME280;26968;42.686;23.352;2023-04-01T21:42:50;94364.31;;;8.39;64.75
41234;BME280;26968;42.686;23.352;2023-04-01T21:48:46;94359.38;;;8.28;65.94
41234;BME280;26968;42.686;23.352;2023-04-01T22:05:17;94350.41;;;8.29;65.24
41234;BME280;26968;42.686;23.352;2023-04-01T22:13:36;94309.28;;;8.18;65.38
41234;BME280;26968;42.686;23.352;2023-04-01T22:16:23;94280.63;;;8.06;65.03
41234;BME280;26968;42.686;23.352;2023-04-01T22:19:04;94337.88;;;8.39;65.18
41234;BME280;26968;42.686;23.352;2023-04-01T22:24:34;94336.88;;;8.35;65.31
41234;BME280;26968;42.686;23.352;2023-04-01T22:27:34;94288.13;;;7.94;65.32
41234;BME280;26968;42.686;23.352;2023-04-01T22:30:18;94339.84;;;8.29;65.31
41234;BME280;26968;42.686;23.352;2023-04-01T22:32:50;94338.22;;;8.33;65.42
41234;BME280;26968;42.686;23.352;2023-04-01T22:35:28;94337.53;;;8.17;65.42
41234;BME280;26968;42.686;23.352;2023-04-01T22:40:59;94339.28;;;8.32;64.63
41234;BME280;26968;42.686;23.352;2023-04-01T22:43:37;94300.25;;;7.95;64.84
41234;BME280;26968;42.686;23.352;2023-04-01T22:49:41;94350.94;;;8.31;64.11
41234;BME280;26968;42.686;23.352;2023-04-01T22:52:38;94356.22;;;8.26;63.84
41234;BME280;26968;42.686;23.352;2023-04-01T22:55:23;94301.66;;;7.87;64.31
41234;BME280;26968;42.686;23.352;2023-04-01T22:57:53;94368.66;;;8.25;63.56
41234;BME280;26968;42.686;23.352;2023-04-01T23:00:39;94368.34;;;8.32;62.90
41234;BME280;26968;42.686;23.352;2023-04-01T23:03:11;94379.50;;;8.24;62.80
41234;BME280;26968;42.686;23.352;2023-04-01T23:05:51;94374.50;;;8.22;62.65
41234;BME280;26968;42.686;23.352;2023-04-01T23:11:13;94369.22;;;8.22;62.06
41234;BME280;26968;42.686;23.352;2023-04-01T23:13:54;94348.13;;;8.17;62.38
41234;BME280;26968;42.686;23.352;2023-04-01T23:16:29;94334.78;;;8.03;61.55
41234;BME280;26968;42.686;23.352;2023-04-01T23:19:18;94320.56;;;7.99;62.20
41234;BME280;26968;42.686;23.352;2023-04-01T23:21:53;94363.16;;;8.17;62.48
41234;BME280;26968;42.686;23.352;2023-04-01T23:24:46;94373.91;;;8.30;61.47
41234;BME280;26968;42.686;23.352;2023-04-01T23:28:14;94377.88;;;8.28;61.92
41234;BME280;26968;42.686;23.352;2023-04-01T23:30:02;94379.44;;;8.34;61.72
41234;BME280;26968;42.686;23.352;2023-04-01T23:32:28;94377.84;;;8.33;61.27